Grant, Alabama
Current Conditions -  °F | °C
As of 1:15 PM on Monday 20 Oct 2014 (Local Time) from K4A6 Reporting Station
Clear Clear  
Wind Chill: 66°   Ceiling: Unl
Heat Index: 66°   Visibility: 10mi
Dew Point: 50°   Wind: 5mph
Humidity: 56%   Direction: 180°S
Pressure: 30.04"   Gusts: NA
Location:  34.53°N, 86.25°W
Report Text: K4A6 201815Z AUTO 18004KT 10SM CLR 19/10 A3004 RMK AO2
Loading
Personal Weather Stations






























Interactive Weather Map
Tropical Storm Tracking
New forecast layout! Learn more

10-Day Weather Forecast

Advertisements
Track Severe Weather on mobile